sensor_id;sensor_type;location;lat;lon;timestamp;P1;durP1;ratioP1;P2;durP2;ratioP2
44147;SDS011;29810;55.848;37.368;2022-09-17T00:00:59;18.48;;;14.25;;
44147;SDS011;29810;55.848;37.368;2022-09-17T00:04:01;15.48;;;13.80;;
44147;SDS011;29810;55.848;37.368;2022-09-17T00:07:03;15.15;;;13.50;;
44147;SDS011;29810;55.848;37.368;2022-09-17T00:10:06;15.68;;;13.48;;
44147;SDS011;29810;55.848;37.368;2022-09-17T00:13:08;15.23;;;13.15;;
44147;SDS011;29810;55.848;37.368;2022-09-17T00:16:11;15.35;;;12.98;;
44147;SDS011;29810;55.848;37.368;2022-09-17T00:19:14;13.55;;;12.23;;
44147;SDS011;29810;55.848;37.368;2022-09-17T00:22:18;16.00;;;12.07;;
44147;SDS011;29810;55.848;37.368;2022-09-17T00:25:19;15.65;;;12.60;;
44147;SDS011;29810;55.848;37.368;2022-09-17T00:28:21;15.18;;;12.25;;
44147;SDS011;29810;55.848;37.368;2022-09-17T00:31:23;13.40;;;11.90;;
44147;SDS011;29810;55.848;37.368;2022-09-17T00:34:26;13.40;;;11.70;;
44147;SDS011;29810;55.848;37.368;2022-09-17T00:37:27;13.77;;;11.85;;
44147;SDS011;29810;55.848;37.368;2022-09-17T00:40:29;13.25;;;11.93;;
44147;SDS011;29810;55.848;37.368;2022-09-17T00:43:38;13.25;;;11.85;;
44147;SDS011;29810;55.848;37.368;2022-09-17T00:46:42;13.10;;;11.02;;
44147;SDS011;29810;55.848;37.368;2022-09-17T00:49:45;13.40;;;11.52;;
44147;SDS011;29810;55.848;37.368;2022-09-17T00:52:55;12.77;;;11.48;;
44147;SDS011;29810;55.848;37.368;2022-09-17T00:56:02;13.18;;;11.40;;
44147;SDS011;29810;55.848;37.368;2022-09-17T00:59:10;13.05;;;11.40;;
44147;SDS011;29810;55.848;37.368;2022-09-17T01:02:11;12.70;;;11.40;;
44147;SDS011;29810;55.848;37.368;2022-09-17T01:05:13;15.07;;;10.98;;
44147;SDS011;29810;55.848;37.368;2022-09-17T01:08:39;13.45;;;12.13;;
44147;SDS011;29810;55.848;37.368;2022-09-17T01:12:03;12.95;;;11.55;;
44147;SDS011;29810;55.848;37.368;2022-09-17T01:28:43;14.75;;;11.48;;
44147;SDS011;29810;55.848;37.368;2022-09-17T01:31:50;12.75;;;11.43;;
44147;SDS011;29810;55.848;37.368;2022-09-17T01:41:11;12.20;;;10.90;;
44147;SDS011;29810;55.848;37.368;2022-09-17T01:44:40;11.35;;;10.25;;
44147;SDS011;29810;55.848;37.368;2022-09-17T01:47:51;12.85;;;10.25;;
44147;SDS011;29810;55.848;37.368;2022-09-17T01:54:12;11.63;;;9.27;;
44147;SDS011;29810;55.848;37.368;2022-09-17T02:00:56;12.15;;;9.07;;
44147;SDS011;29810;55.848;37.368;2022-09-17T02:04:22;9.75;;;8.85;;
44147;SDS011;29810;55.848;37.368;2022-09-17T02:07:28;10.50;;;8.75;;
44147;SDS011;29810;55.848;37.368;2022-09-17T02:10:33;11.95;;;8.77;;
44147;SDS011;29810;55.848;37.368;2022-09-17T02:13:55;11.45;;;8.98;;
44147;SDS011;29810;55.848;37.368;2022-09-17T02:17:15;10.65;;;9.13;;
44147;SDS011;29810;55.848;37.368;2022-09-17T02:20:42;10.23;;;9.02;;
44147;SDS011;29810;55.848;37.368;2022-09-17T02:23:54;11.63;;;9.15;;
44147;SDS011;29810;55.848;37.368;2022-09-17T02:27:33;11.77;;;8.93;;
44147;SDS011;29810;55.848;37.368;2022-09-17T02:30:47;12.10;;;8.55;;
44147;SDS011;29810;55.848;37.368;2022-09-17T02:33:49;11.68;;;8.77;;
44147;SDS011;29810;55.848;37.368;2022-09-17T02:36:54;9.90;;;8.60;;
44147;SDS011;29810;55.848;37.368;2022-09-17T02:39:58;10.27;;;8.90;;
44147;SDS011;29810;55.848;37.368;2022-09-17T02:43:10;12.63;;;8.45;;
44147;SDS011;29810;55.848;37.368;2022-09-17T03:06:21;10.20;;;8.02;;
44147;SDS011;29810;55.848;37.368;2022-09-17T03:09:23;10.10;;;7.90;;
44147;SDS011;29810;55.848;37.368;2022-09-17T03:12:24;9.55;;;8.50;;
44147;SDS011;29810;55.848;37.368;2022-09-17T03:15:26;12.45;;;8.90;;
44147;SDS011;29810;55.848;37.368;2022-09-17T03:18:28;10.07;;;8.70;;
44147;SDS011;29810;55.848;37.368;2022-09-17T03:21:30;11.88;;;8.23;;
44147;SDS011;29810;55.848;37.368;2022-09-17T03:24:32;10.07;;;8.38;;
44147;SDS011;29810;55.848;37.368;2022-09-17T03:27:33;12.05;;;8.65;;
44147;SDS011;29810;55.848;37.368;2022-09-17T03:30:35;10.13;;;8.80;;
44147;SDS011;29810;55.848;37.368;2022-09-17T03:33:36;13.18;;;8.88;;
44147;SDS011;29810;55.848;37.368;2022-09-17T03:36:38;11.27;;;9.07;;
44147;SDS011;29810;55.848;37.368;2022-09-17T03:39:39;10.93;;;9.38;;
44147;SDS011;29810;55.848;37.368;2022-09-17T03:42:41;12.75;;;9.40;;
44147;SDS011;29810;55.848;37.368;2022-09-17T03:45:42;12.70;;;9.77;;
44147;SDS011;29810;55.848;37.368;2022-09-17T03:48:44;11.57;;;10.27;;
44147;SDS011;29810;55.848;37.368;2022-09-17T03:51:46;11.48;;;9.82;;
44147;SDS011;29810;55.848;37.368;2022-09-17T03:54:47;11.90;;;9.70;;
44147;SDS011;29810;55.848;37.368;2022-09-17T03:57:49;12.32;;;10.00;;
44147;SDS011;29810;55.848;37.368;2022-09-17T04:00:53;14.18;;;10.68;;
44147;SDS011;29810;55.848;37.368;2022-09-17T04:06:59;10.40;;;9.10;;
44147;SDS011;29810;55.848;37.368;2022-09-17T04:10:00;12.45;;;9.65;;
44147;SDS011;29810;55.848;37.368;2022-09-17T04:13:03;10.60;;;9.50;;
44147;SDS011;29810;55.848;37.368;2022-09-17T04:16:05;11.05;;;8.82;;
44147;SDS011;29810;55.848;37.368;2022-09-17T04:19:07;11.77;;;8.85;;
44147;SDS011;29810;55.848;37.368;2022-09-17T04:22:08;12.55;;;8.60;;
44147;SDS011;29810;55.848;37.368;2022-09-17T04:25:10;9.95;;;8.40;;
44147;SDS011;29810;55.848;37.368;2022-09-17T04:28:12;12.85;;;7.93;;
44147;SDS011;29810;55.848;37.368;2022-09-17T04:31:13;9.35;;;8.13;;
44147;SDS011;29810;55.848;37.368;2022-09-17T04:34:15;9.48;;;7.60;;
44147;SDS011;29810;55.848;37.368;2022-09-17T04:37:16;9.35;;;7.85;;
44147;SDS011;29810;55.848;37.368;2022-09-17T04:40:18;10.23;;;7.68;;
44147;SDS011;29810;55.848;37.368;2022-09-17T04:43:20;10.27;;;7.18;;
44147;SDS011;29810;55.848;37.368;2022-09-17T04:46:22;9.63;;;7.53;;
44147;SDS011;29810;55.848;37.368;2022-09-17T04:49:23;8.32;;;7.18;;
44147;SDS011;29810;55.848;37.368;2022-09-17T04:52:25;7.75;;;6.57;;
44147;SDS011;29810;55.848;37.368;2022-09-17T04:55:26;7.85;;;6.87;;
44147;SDS011;29810;55.848;37.368;2022-09-17T04:58:28;8.95;;;7.03;;
44147;SDS011;29810;55.848;37.368;2022-09-17T05:01:31;8.23;;;6.28;;
44147;SDS011;29810;55.848;37.368;2022-09-17T05:04:33;8.75;;;6.53;;
44147;SDS011;29810;55.848;37.368;2022-09-17T05:07:37;8.35;;;6.18;;
44147;SDS011;29810;55.848;37.368;2022-09-17T05:10:39;7.47;;;5.62;;
44147;SDS011;29810;55.848;37.368;2022-09-17T05:13:40;7.35;;;5.93;;
44147;SDS011;29810;55.848;37.368;2022-09-17T05:16:42;9.43;;;5.80;;
44147;SDS011;29810;55.848;37.368;2022-09-17T05:19:43;8.50;;;6.03;;
44147;SDS011;29810;55.848;37.368;2022-09-17T05:22:49;8.25;;;5.15;;
44147;SDS011;29810;55.848;37.368;2022-09-17T05:25:51;6.93;;;5.37;;
44147;SDS011;29810;55.848;37.368;2022-09-17T05:28:53;6.18;;;4.80;;
44147;SDS011;29810;55.848;37.368;2022-09-17T05:31:54;7.07;;;4.95;;
44147;SDS011;29810;55.848;37.368;2022-09-17T05:34:56;8.32;;;4.68;;
44147;SDS011;29810;55.848;37.368;2022-09-17T05:38:01;7.37;;;4.60;;
44147;SDS011;29810;55.848;37.368;2022-09-17T05:41:04;8.55;;;4.87;;
44147;SDS011;29810;55.848;37.368;2022-09-17T05:44:06;7.35;;;4.93;;
44147;SDS011;29810;55.848;37.368;2022-09-17T05:47:08;8.52;;;4.87;;
44147;SDS011;29810;55.848;37.368;2022-09-17T05:50:09;7.30;;;4.28;;
44147;SDS011;29810;55.848;37.368;2022-09-17T05:53:12;8.48;;;4.50;;
44147;SDS011;29810;55.848;37.368;2022-09-17T05:56:13;6.35;;;4.00;;
44147;SDS011;29810;55.848;37.368;2022-09-17T05:59:16;6.75;;;4.00;;
44147;SDS011;29810;55.848;37.368;2022-09-17T06:02:17;8.30;;;4.97;;
44147;SDS011;29810;55.848;37.368;2022-09-17T06:05:19;7.70;;;4.15;;
44147;SDS011;29810;55.848;37.368;2022-09-17T06:08:20;5.95;;;4.03;;
44147;SDS011;29810;55.848;37.368;2022-09-17T06:11:23;6.45;;;3.75;;
44147;SDS011;29810;55.848;37.368;2022-09-17T06:14:24;6.28;;;3.60;;
44147;SDS011;29810;55.848;37.368;2022-09-17T06:17:26;5.40;;;3.50;;
44147;SDS011;29810;55.848;37.368;2022-09-17T06:20:27;8.82;;;4.20;;
44147;SDS011;29810;55.848;37.368;2022-09-17T06:23:32;5.57;;;3.37;;
44147;SDS011;29810;55.848;37.368;2022-09-17T06:26:37;6.53;;;3.08;;
44147;SDS011;29810;55.848;37.368;2022-09-17T06:29:38;6.55;;;3.05;;
44147;SDS011;29810;55.848;37.368;2022-09-17T06:32:40;6.03;;;3.33;;
44147;SDS011;29810;55.848;37.368;2022-09-17T06:35:42;6.65;;;3.60;;
44147;SDS011;29810;55.848;37.368;2022-09-17T06:38:43;5.57;;;2.80;;
44147;SDS011;29810;55.848;37.368;2022-09-17T06:41:45;7.75;;;3.00;;
44147;SDS011;29810;55.848;37.368;2022-09-17T06:44:46;4.93;;;2.70;;
44147;SDS011;29810;55.848;37.368;2022-09-17T06:47:48;6.60;;;2.90;;
44147;SDS011;29810;55.848;37.368;2022-09-17T06:50:50;6.03;;;3.10;;
44147;SDS011;29810;55.848;37.368;2022-09-17T06:53:54;4.40;;;2.80;;
44147;SDS011;29810;55.848;37.368;2022-09-17T06:56:55;8.60;;;2.97;;
44147;SDS011;29810;55.848;37.368;2022-09-17T06:59:57;8.73;;;2.75;;
44147;SDS011;29810;55.848;37.368;2022-09-17T07:02:59;5.57;;;2.62;;
44147;SDS011;29810;55.848;37.368;2022-09-17T07:06:01;7.35;;;2.90;;
44147;SDS011;29810;55.848;37.368;2022-09-17T07:09:03;6.62;;;2.85;;
44147;SDS011;29810;55.848;37.368;2022-09-17T07:12:08;5.87;;;2.92;;
44147;SDS011;29810;55.848;37.368;2022-09-17T07:15:13;7.18;;;3.08;;
44147;SDS011;29810;55.848;37.368;2022-09-17T07:18:16;6.60;;;2.87;;
44147;SDS011;29810;55.848;37.368;2022-09-17T07:21:17;4.65;;;2.80;;
44147;SDS011;29810;55.848;37.368;2022-09-17T07:24:19;6.28;;;2.75;;
44147;SDS011;29810;55.848;37.368;2022-09-17T07:27:20;10.05;;;3.03;;
44147;SDS011;29810;55.848;37.368;2022-09-17T07:30:22;6.87;;;2.75;;
44147;SDS011;29810;55.848;37.368;2022-09-17T07:33:24;12.73;;;3.40;;
44147;SDS011;29810;55.848;37.368;2022-09-17T07:36:27;7.55;;;2.78;;
44147;SDS011;29810;55.848;37.368;2022-09-17T07:39:28;8.98;;;3.42;;
44147;SDS011;29810;55.848;37.368;2022-09-17T07:42:30;9.43;;;3.22;;
44147;SDS011;29810;55.848;37.368;2022-09-17T07:45:32;10.10;;;3.40;;
44147;SDS011;29810;55.848;37.368;2022-09-17T07:48:34;6.85;;;2.95;;
44147;SDS011;29810;55.848;37.368;2022-09-17T07:51:35;5.90;;;2.60;;
44147;SDS011;29810;55.848;37.368;2022-09-17T07:54:37;6.30;;;2.60;;
44147;SDS011;29810;55.848;37.368;2022-09-17T07:57:38;6.50;;;2.90;;
44147;SDS011;29810;55.848;37.368;2022-09-17T08:00:40;5.40;;;2.75;;
44147;SDS011;29810;55.848;37.368;2022-09-17T08:03:46;6.10;;;2.95;;
44147;SDS011;29810;55.848;37.368;2022-09-17T08:06:50;7.25;;;3.00;;
44147;SDS011;29810;55.848;37.368;2022-09-17T08:09:52;8.20;;;3.10;;
44147;SDS011;29810;55.848;37.368;2022-09-17T08:12:54;5.32;;;2.70;;
44147;SDS011;29810;55.848;37.368;2022-09-17T08:16:01;7.37;;;2.62;;
44147;SDS011;29810;55.848;37.368;2022-09-17T08:19:03;6.30;;;2.90;;
44147;SDS011;29810;55.848;37.368;2022-09-17T08:22:05;10.63;;;2.78;;
44147;SDS011;29810;55.848;37.368;2022-09-17T08:25:07;6.60;;;2.58;;
44147;SDS011;29810;55.848;37.368;2022-09-17T08:28:10;7.93;;;3.05;;
44147;SDS011;29810;55.848;37.368;2022-09-17T08:31:11;7.47;;;2.95;;
44147;SDS011;29810;55.848;37.368;2022-09-17T08:34:14;7.55;;;2.80;;
44147;SDS011;29810;55.848;37.368;2022-09-17T08:37:16;6.25;;;2.58;;
44147;SDS011;29810;55.848;37.368;2022-09-17T08:40:18;4.68;;;2.35;;
44147;SDS011;29810;55.848;37.368;2022-09-17T08:43:22;7.90;;;2.40;;
44147;SDS011;29810;55.848;37.368;2022-09-17T08:46:25;4.60;;;2.37;;
44147;SDS011;29810;55.848;37.368;2022-09-17T08:49:32;7.93;;;2.60;;
44147;SDS011;29810;55.848;37.368;2022-09-17T08:59:16;8.40;;;2.50;;
44147;SDS011;29810;55.848;37.368;2022-09-17T09:06:17;6.10;;;2.28;;
44147;SDS011;29810;55.848;37.368;2022-09-17T09:09:24;5.85;;;2.40;;
44147;SDS011;29810;55.848;37.368;2022-09-17T09:12:33;6.95;;;2.03;;
44147;SDS011;29810;55.848;37.368;2022-09-17T09:15:39;6.20;;;2.30;;
44147;SDS011;29810;55.848;37.368;2022-09-17T09:18:45;9.75;;;2.15;;
44147;SDS011;29810;55.848;37.368;2022-09-17T09:22:05;5.03;;;2.17;;
44147;SDS011;29810;55.848;37.368;2022-09-17T09:25:32;6.05;;;2.03;;
44147;SDS011;29810;55.848;37.368;2022-09-17T09:28:45;3.42;;;1.60;;
44147;SDS011;29810;55.848;37.368;2022-09-17T09:35:06;6.82;;;1.80;;
44147;SDS011;29810;55.848;37.368;2022-09-17T09:41:48;3.28;;;1.45;;
44147;SDS011;29810;55.848;37.368;2022-09-17T09:45:29;4.43;;;1.45;;
44147;SDS011;29810;55.848;37.368;2022-09-17T10:01:32;5.15;;;1.73;;
44147;SDS011;29810;55.848;37.368;2022-09-17T10:04:40;6.15;;;2.10;;
44147;SDS011;29810;55.848;37.368;2022-09-17T10:07:42;5.15;;;1.95;;
44147;SDS011;29810;55.848;37.368;2022-09-17T10:17:35;4.03;;;1.55;;
44147;SDS011;29810;55.848;37.368;2022-09-17T10:20:39;3.33;;;1.40;;
44147;SDS011;29810;55.848;37.368;2022-09-17T10:24:01;3.12;;;1.50;;
44147;SDS011;29810;55.848;37.368;2022-09-17T10:27:11;3.37;;;1.40;;
44147;SDS011;29810;55.848;37.368;2022-09-17T10:30:16;5.95;;;1.62;;
44147;SDS011;29810;55.848;37.368;2022-09-17T10:33:20;7.20;;;1.55;;
44147;SDS011;29810;55.848;37.368;2022-09-17T10:39:41;5.22;;;1.50;;
44147;SDS011;29810;55.848;37.368;2022-09-17T10:42:49;5.87;;;1.70;;
44147;SDS011;29810;55.848;37.368;2022-09-17T10:46:13;3.65;;;1.73;;
44147;SDS011;29810;55.848;37.368;2022-09-17T10:49:34;6.10;;;1.90;;
44147;SDS011;29810;55.848;37.368;2022-09-17T10:52:37;5.40;;;1.80;;
44147;SDS011;29810;55.848;37.368;2022-09-17T10:56:01;3.78;;;1.70;;
44147;SDS011;29810;55.848;37.368;2022-09-17T11:10:00;7.45;;;2.58;;
44147;SDS011;29810;55.848;37.368;2022-09-17T11:42:43;4.55;;;1.60;;
44147;SDS011;29810;55.848;37.368;2022-09-17T11:45:51;4.37;;;1.70;;
44147;SDS011;29810;55.848;37.368;2022-09-17T11:48:58;3.45;;;1.40;;
44147;SDS011;29810;55.848;37.368;2022-09-17T11:58:39;3.12;;;1.40;;
44147;SDS011;29810;55.848;37.368;2022-09-17T12:01:55;5.80;;;1.67;;
44147;SDS011;29810;55.848;37.368;2022-09-17T12:05:17;6.57;;;1.70;;
44147;SDS011;29810;55.848;37.368;2022-09-17T12:15:13;6.43;;;1.95;;
44147;SDS011;29810;55.848;37.368;2022-09-17T12:18:29;6.37;;;1.92;;
44147;SDS011;29810;55.848;37.368;2022-09-17T12:21:37;6.95;;;1.70;;
44147;SDS011;29810;55.848;37.368;2022-09-17T12:24:42;6.53;;;1.67;;
44147;SDS011;29810;55.848;37.368;2022-09-17T12:27:55;5.93;;;2.08;;
44147;SDS011;29810;55.848;37.368;2022-09-17T12:31:09;5.37;;;1.60;;
44147;SDS011;29810;55.848;37.368;2022-09-17T12:37:40;4.35;;;1.40;;
44147;SDS011;29810;55.848;37.368;2022-09-17T12:57:44;7.87;;;2.53;;
44147;SDS011;29810;55.848;37.368;2022-09-17T13:01:06;5.43;;;2.60;;
44147;SDS011;29810;55.848;37.368;2022-09-17T13:11:51;9.40;;;2.40;;
44147;SDS011;29810;55.848;37.368;2022-09-17T13:18:28;3.65;;;2.10;;
44147;SDS011;29810;55.848;37.368;2022-09-17T13:21:41;5.10;;;2.20;;
44147;SDS011;29810;55.848;37.368;2022-09-17T13:25:06;6.07;;;2.42;;
44147;SDS011;29810;55.848;37.368;2022-09-17T13:28:11;5.93;;;2.30;;
44147;SDS011;29810;55.848;37.368;2022-09-17T13:31:20;9.40;;;3.67;;
44147;SDS011;29810;55.848;37.368;2022-09-17T13:34:44;7.87;;;2.47;;
44147;SDS011;29810;55.848;37.368;2022-09-17T13:41:16;6.60;;;2.40;;
44147;SDS011;29810;55.848;37.368;2022-09-17T13:44:21;5.68;;;2.62;;
44147;SDS011;29810;55.848;37.368;2022-09-17T13:47:25;5.25;;;2.40;;
44147;SDS011;29810;55.848;37.368;2022-09-17T13:50:33;4.90;;;2.33;;
44147;SDS011;29810;55.848;37.368;2022-09-17T13:53:37;6.30;;;2.10;;
44147;SDS011;29810;55.848;37.368;2022-09-17T13:56:41;5.85;;;2.30;;
44147;SDS011;29810;55.848;37.368;2022-09-17T13:59:55;4.70;;;2.15;;
44147;SDS011;29810;55.848;37.368;2022-09-17T14:09:59;5.18;;;2.70;;
44147;SDS011;29810;55.848;37.368;2022-09-17T14:13:19;7.43;;;2.25;;
44147;SDS011;29810;55.848;37.368;2022-09-17T14:22:53;4.50;;;2.50;;
44147;SDS011;29810;55.848;37.368;2022-09-17T14:26:01;6.55;;;2.00;;
44147;SDS011;29810;55.848;37.368;2022-09-17T14:29:12;4.03;;;1.42;;
44147;SDS011;29810;55.848;37.368;2022-09-17T14:36:10;1.83;;;1.12;;
44147;SDS011;29810;55.848;37.368;2022-09-17T14:39:20;4.07;;;1.23;;
44147;SDS011;29810;55.848;37.368;2022-09-17T14:42:24;3.12;;;1.20;;
44147;SDS011;29810;55.848;37.368;2022-09-17T14:45:38;2.25;;;1.17;;
44147;SDS011;29810;55.848;37.368;2022-09-17T14:48:42;3.42;;;1.58;;
44147;SDS011;29810;55.848;37.368;2022-09-17T14:51:44;3.62;;;1.60;;
44147;SDS011;29810;55.848;37.368;2022-09-17T14:54:46;3.45;;;1.58;;
44147;SDS011;29810;55.848;37.368;2022-09-17T14:57:49;4.00;;;1.67;;
44147;SDS011;29810;55.848;37.368;2022-09-17T15:00:53;4.25;;;1.70;;
44147;SDS011;29810;55.848;37.368;2022-09-17T15:07:12;4.53;;;2.05;;
44147;SDS011;29810;55.848;37.368;2022-09-17T15:10:16;10.25;;;2.33;;
44147;SDS011;29810;55.848;37.368;2022-09-17T15:16:29;6.47;;;3.00;;
44147;SDS011;29810;55.848;37.368;2022-09-17T15:19:38;6.35;;;3.10;;
44147;SDS011;29810;55.848;37.368;2022-09-17T15:22:43;7.70;;;2.90;;
44147;SDS011;29810;55.848;37.368;2022-09-17T15:25:51;5.70;;;2.92;;
44147;SDS011;29810;55.848;37.368;2022-09-17T15:32:01;5.68;;;2.80;;
44147;SDS011;29810;55.848;37.368;2022-09-17T15:38:23;4.25;;;2.67;;
44147;SDS011;29810;55.848;37.368;2022-09-17T15:41:31;4.75;;;2.90;;
44147;SDS011;29810;55.848;37.368;2022-09-17T15:44:34;4.80;;;3.05;;
44147;SDS011;29810;55.848;37.368;2022-09-17T15:47:54;5.12;;;3.00;;
44147;SDS011;29810;55.848;37.368;2022-09-17T15:51:00;8.38;;;3.50;;
44147;SDS011;29810;55.848;37.368;2022-09-17T15:54:05;5.62;;;3.33;;
44147;SDS011;29810;55.848;37.368;2022-09-17T15:57:11;10.10;;;3.50;;
44147;SDS011;29810;55.848;37.368;2022-09-17T16:00:17;6.62;;;3.33;;
44147;SDS011;29810;55.848;37.368;2022-09-17T16:07:25;6.22;;;3.10;;
44147;SDS011;29810;55.848;37.368;2022-09-17T16:13:19;5.62;;;3.45;;
44147;SDS011;29810;55.848;37.368;2022-09-17T16:16:32;6.85;;;3.45;;
44147;SDS011;29810;55.848;37.368;2022-09-17T16:19:36;5.93;;;3.45;;
44147;SDS011;29810;55.848;37.368;2022-09-17T16:22:38;6.62;;;3.72;;
44147;SDS011;29810;55.848;37.368;2022-09-17T16:25:39;6.25;;;3.80;;
44147;SDS011;29810;55.848;37.368;2022-09-17T16:28:42;8.15;;;3.60;;
44147;SDS011;29810;55.848;37.368;2022-09-17T16:31:45;7.22;;;3.40;;
44147;SDS011;29810;55.848;37.368;2022-09-17T16:34:47;7.15;;;3.97;;
44147;SDS011;29810;55.848;37.368;2022-09-17T16:37:49;7.55;;;3.80;;
44147;SDS011;29810;55.848;37.368;2022-09-17T16:40:52;8.55;;;3.90;;
44147;SDS011;29810;55.848;37.368;2022-09-17T16:43:53;5.68;;;4.12;;
44147;SDS011;29810;55.848;37.368;2022-09-17T16:46:55;7.82;;;4.12;;
44147;SDS011;29810;55.848;37.368;2022-09-17T16:49:56;7.65;;;4.45;;
44147;SDS011;29810;55.848;37.368;2022-09-17T16:52:58;7.95;;;4.32;;
44147;SDS011;29810;55.848;37.368;2022-09-17T16:56:00;8.27;;;4.55;;
44147;SDS011;29810;55.848;37.368;2022-09-17T16:59:07;9.77;;;5.25;;
44147;SDS011;29810;55.848;37.368;2022-09-17T17:02:08;9.25;;;5.50;;
44147;SDS011;29810;55.848;37.368;2022-09-17T17:05:10;7.35;;;5.10;;
44147;SDS011;29810;55.848;37.368;2022-09-17T17:08:12;9.45;;;5.30;;
44147;SDS011;29810;55.848;37.368;2022-09-17T17:11:14;10.35;;;5.25;;
44147;SDS011;29810;55.848;37.368;2022-09-17T17:14:16;8.48;;;5.50;;
44147;SDS011;29810;55.848;37.368;2022-09-17T17:17:19;10.95;;;5.72;;
44147;SDS011;29810;55.848;37.368;2022-09-17T17:20:21;10.43;;;5.90;;
44147;SDS011;29810;55.848;37.368;2022-09-17T17:23:23;11.75;;;6.00;;
44147;SDS011;29810;55.848;37.368;2022-09-17T17:26:25;9.80;;;6.65;;
44147;SDS011;29810;55.848;37.368;2022-09-17T17:29:27;11.35;;;6.28;;
44147;SDS011;29810;55.848;37.368;2022-09-17T17:32:29;12.27;;;6.10;;
44147;SDS011;29810;55.848;37.368;2022-09-17T17:35:32;10.18;;;5.93;;
44147;SDS011;29810;55.848;37.368;2022-09-17T17:38:33;9.82;;;6.28;;
44147;SDS011;29810;55.848;37.368;2022-09-17T17:41:36;9.60;;;6.00;;
44147;SDS011;29810;55.848;37.368;2022-09-17T17:44:38;10.85;;;6.10;;
44147;SDS011;29810;55.848;37.368;2022-09-17T17:47:40;11.98;;;6.50;;
44147;SDS011;29810;55.848;37.368;2022-09-17T17:50:42;10.40;;;6.30;;
44147;SDS011;29810;55.848;37.368;2022-09-17T17:53:44;9.27;;;6.40;;
44147;SDS011;29810;55.848;37.368;2022-09-17T17:56:46;10.40;;;6.55;;
44147;SDS011;29810;55.848;37.368;2022-09-17T17:59:49;11.52;;;6.43;;
44147;SDS011;29810;55.848;37.368;2022-09-17T18:02:50;10.50;;;6.40;;
44147;SDS011;29810;55.848;37.368;2022-09-17T18:05:52;10.70;;;6.60;;
44147;SDS011;29810;55.848;37.368;2022-09-17T18:08:57;9.55;;;6.40;;
44147;SDS011;29810;55.848;37.368;2022-09-17T18:11:59;12.73;;;6.57;;
44147;SDS011;29810;55.848;37.368;2022-09-17T18:15:02;10.88;;;6.85;;
44147;SDS011;29810;55.848;37.368;2022-09-17T18:18:07;9.50;;;6.72;;
44147;SDS011;29810;55.848;37.368;2022-09-17T18:21:10;11.90;;;7.20;;
44147;SDS011;29810;55.848;37.368;2022-09-17T18:24:13;11.65;;;6.90;;
44147;SDS011;29810;55.848;37.368;2022-09-17T18:27:15;9.23;;;6.90;;
44147;SDS011;29810;55.848;37.368;2022-09-17T18:30:17;11.82;;;6.65;;
44147;SDS011;29810;55.848;37.368;2022-09-17T18:33:20;9.85;;;6.57;;
44147;SDS011;29810;55.848;37.368;2022-09-17T18:36:27;9.55;;;6.40;;
44147;SDS011;29810;55.848;37.368;2022-09-17T18:39:31;12.18;;;6.65;;
44147;SDS011;29810;55.848;37.368;2022-09-17T18:42:33;11.65;;;7.05;;
44147;SDS011;29810;55.848;37.368;2022-09-17T18:45:35;9.63;;;6.15;;
44147;SDS011;29810;55.848;37.368;2022-09-17T18:48:37;10.05;;;5.85;;
44147;SDS011;29810;55.848;37.368;2022-09-17T18:51:38;10.15;;;5.97;;
44147;SDS011;29810;55.848;37.368;2022-09-17T18:54:40;8.55;;;5.60;;
44147;SDS011;29810;55.848;37.368;2022-09-17T18:57:42;10.10;;;5.57;;
44147;SDS011;29810;55.848;37.368;2022-09-17T19:00:44;9.90;;;5.93;;
44147;SDS011;29810;55.848;37.368;2022-09-17T19:03:46;13.80;;;5.87;;
44147;SDS011;29810;55.848;37.368;2022-09-17T19:06:48;8.23;;;5.60;;
44147;SDS011;29810;55.848;37.368;2022-09-17T19:09:49;10.40;;;5.30;;
44147;SDS011;29810;55.848;37.368;2022-09-17T19:12:52;8.85;;;5.28;;
44147;SDS011;29810;55.848;37.368;2022-09-17T19:15:57;10.73;;;5.22;;
44147;SDS011;29810;55.848;37.368;2022-09-17T19:19:00;10.10;;;5.07;;
44147;SDS011;29810;55.848;37.368;2022-09-17T19:22:01;9.15;;;5.07;;
44147;SDS011;29810;55.848;37.368;2022-09-17T19:25:03;9.35;;;5.22;;
44147;SDS011;29810;55.848;37.368;2022-09-17T19:28:05;9.48;;;5.28;;
44147;SDS011;29810;55.848;37.368;2022-09-17T19:31:09;8.52;;;5.07;;
44147;SDS011;29810;55.848;37.368;2022-09-17T19:34:11;9.50;;;5.15;;
44147;SDS011;29810;55.848;37.368;2022-09-17T19:37:13;8.73;;;5.18;;
44147;SDS011;29810;55.848;37.368;2022-09-17T19:40:15;8.23;;;4.80;;
44147;SDS011;29810;55.848;37.368;2022-09-17T19:43:17;9.18;;;5.45;;
44147;SDS011;29810;55.848;37.368;2022-09-17T19:46:19;7.10;;;5.43;;
44147;SDS011;29810;55.848;37.368;2022-09-17T19:49:23;9.10;;;5.00;;
44147;SDS011;29810;55.848;37.368;2022-09-17T19:52:24;8.90;;;5.10;;
44147;SDS011;29810;55.848;37.368;2022-09-17T19:55:26;7.68;;;5.20;;
44147;SDS011;29810;55.848;37.368;2022-09-17T19:58:27;7.40;;;5.15;;
44147;SDS011;29810;55.848;37.368;2022-09-17T20:01:30;7.72;;;4.80;;
44147;SDS011;29810;55.848;37.368;2022-09-17T20:04:34;8.68;;;5.32;;
44147;SDS011;29810;55.848;37.368;2022-09-17T20:07:36;7.75;;;5.07;;
44147;SDS011;29810;55.848;37.368;2022-09-17T20:10:37;10.82;;;5.05;;
44147;SDS011;29810;55.848;37.368;2022-09-17T20:13:39;7.22;;;4.90;;
44147;SDS011;29810;55.848;37.368;2022-09-17T20:16:41;8.15;;;4.60;;
44147;SDS011;29810;55.848;37.368;2022-09-17T20:19:43;9.00;;;5.32;;
44147;SDS011;29810;55.848;37.368;2022-09-17T20:22:45;7.65;;;4.95;;
44147;SDS011;29810;55.848;37.368;2022-09-17T20:25:52;10.80;;;5.35;;
44147;SDS011;29810;55.848;37.368;2022-09-17T20:28:54;9.85;;;5.70;;
44147;SDS011;29810;55.848;37.368;2022-09-17T20:31:55;8.70;;;5.35;;
44147;SDS011;29810;55.848;37.368;2022-09-17T20:34:57;11.57;;;5.75;;
44147;SDS011;29810;55.848;37.368;2022-09-17T20:37:58;9.38;;;6.07;;
44147;SDS011;29810;55.848;37.368;2022-09-17T20:41:03;8.98;;;6.37;;
44147;SDS011;29810;55.848;37.368;2022-09-17T20:44:09;11.82;;;6.70;;
44147;SDS011;29810;55.848;37.368;2022-09-17T20:47:11;10.18;;;6.35;;
44147;SDS011;29810;55.848;37.368;2022-09-17T20:50:13;9.57;;;6.97;;
44147;SDS011;29810;55.848;37.368;2022-09-17T20:53:16;12.23;;;6.80;;
44147;SDS011;29810;55.848;37.368;2022-09-17T20:56:18;11.98;;;6.75;;
44147;SDS011;29810;55.848;37.368;2022-09-17T20:59:21;9.15;;;6.93;;
44147;SDS011;29810;55.848;37.368;2022-09-17T21:02:30;11.88;;;6.78;;
44147;SDS011;29810;55.848;37.368;2022-09-17T21:05:35;8.75;;;6.68;;
44147;SDS011;29810;55.848;37.368;2022-09-17T21:08:38;8.82;;;6.78;;
44147;SDS011;29810;55.848;37.368;2022-09-17T21:11:39;12.63;;;7.07;;
44147;SDS011;29810;55.848;37.368;2022-09-17T21:14:42;12.68;;;6.97;;
44147;SDS011;29810;55.848;37.368;2022-09-17T21:17:44;11.57;;;6.80;;
44147;SDS011;29810;55.848;37.368;2022-09-17T21:20:46;9.13;;;7.03;;
44147;SDS011;29810;55.848;37.368;2022-09-17T21:23:48;10.75;;;6.75;;
44147;SDS011;29810;55.848;37.368;2022-09-17T21:26:50;10.18;;;7.43;;
44147;SDS011;29810;55.848;37.368;2022-09-17T21:29:53;12.43;;;7.30;;
44147;SDS011;29810;55.848;37.368;2022-09-17T21:32:54;8.70;;;7.40;;
44147;SDS011;29810;55.848;37.368;2022-09-17T21:36:00;12.80;;;7.75;;
44147;SDS011;29810;55.848;37.368;2022-09-17T21:39:22;9.02;;;6.90;;
44147;SDS011;29810;55.848;37.368;2022-09-17T21:42:24;10.23;;;7.90;;
44147;SDS011;29810;55.848;37.368;2022-09-17T21:45:25;10.98;;;8.02;;